createdAt,value
2023-01-01T00:01:27.305Z,98935.88
2023-01-01T00:03:56.379Z,98946.34
2023-01-01T00:06:23.795Z,98946.19
2023-01-01T00:09:11.086Z,98949.09
2023-01-01T00:11:37.780Z,98958.75
2023-01-01T00:14:11.871Z,98947.16
2023-01-01T00:16:39.248Z,98948.97
2023-01-01T00:19:06.027Z,98948.28
2023-01-01T00:21:32.689Z,98950.75
2023-01-01T00:23:59.396Z,98954.38
2023-01-01T00:26:29.507Z,98956.81
2023-01-01T00:29:01.383Z,98956.81
2023-01-01T00:31:28.101Z,98955.63
2023-01-01T00:33:56.061Z,98956.94
2023-01-01T00:36:24.447Z,98956.75
2023-01-01T00:38:51.591Z,98955.22
2023-01-01T00:41:18.756Z,98959.50
2023-01-01T00:43:46.098Z,98951.66
2023-01-01T00:46:13.586Z,98950.56
2023-01-01T00:48:40.459Z,98949.41
2023-01-01T00:51:08.019Z,98939.75
2023-01-01T00:53:34.838Z,98941.91
2023-01-01T00:56:01.543Z,98939.94
2023-01-01T00:58:28.607Z,98935.38
2023-01-01T01:00:55.304Z,98928.03
2023-01-01T01:03:30.432Z,98921.94
2023-01-01T01:06:00.163Z,98927.19
2023-01-01T01:08:30.928Z,98931.28
2023-01-01T01:11:07.157Z,98940.59
2023-01-01T01:13:33.788Z,98954.03
2023-01-01T01:16:00.756Z,98965.19
2023-01-01T01:18:27.458Z,98966.09
2023-01-01T01:20:54.876Z,98965.47
2023-01-01T01:23:21.655Z,98967.06
2023-01-01T01:25:48.383Z,98971.16
2023-01-01T01:28:15.706Z,98965.94
2023-01-01T01:30:42.394Z,98971.66
2023-01-01T01:33:09.302Z,98980.66
2023-01-01T01:35:36.150Z,98985.66
2023-01-01T01:38:02.864Z,98984.03
2023-01-01T01:40:29.631Z,98988.28
2023-01-01T01:42:56.339Z,98989.75
2023-01-01T01:45:27.002Z,98991.53
2023-01-01T01:47:59.149Z,98990.75
2023-01-01T01:50:31.213Z,98991.09
2023-01-01T01:53:08.080Z,98996.00
2023-01-01T01:55:39.744Z,98992.25
2023-01-01T01:58:10.180Z,98990.44
2023-01-01T02:00:37.025Z,98988.63
2023-01-01T02:03:08.379Z,98995.13
2023-01-01T02:05:36.095Z,98994.47
2023-01-01T02:08:05.279Z,98999.53
2023-01-01T02:10:32.725Z,99000.69
2023-01-01T02:12:59.577Z,99000.69
2023-01-01T02:15:31.292Z,99001.81
2023-01-01T02:18:18.531Z,98998.06
2023-01-01T02:21:00.853Z,98999.56
2023-01-01T02:23:43.263Z,99009.66
2023-01-01T02:26:45.137Z,99019.59
2023-01-01T02:29:25.672Z,99010.41
2023-01-01T02:32:13.676Z,99007.97
2023-01-01T02:34:46.920Z,99003.50
2023-01-01T02:37:17.316Z,99002.78
2023-01-01T02:39:51.573Z,98997.13
2023-01-01T02:42:19.697Z,98992.59
2023-01-01T02:44:49.889Z,98995.25
2023-01-01T02:47:20.080Z,98999.78
2023-01-01T02:49:54.949Z,98992.69
2023-01-01T02:52:52.183Z,99003.78
2023-01-01T02:55:42.763Z,99008.91
2023-01-01T02:58:38.368Z,99002.53
2023-01-01T03:01:38.892Z,99000.88
2023-01-01T03:04:15.180Z,99004.34
2023-01-01T03:06:55.857Z,98995.34
2023-01-01T03:09:41.834Z,99002.56
2023-01-01T03:12:39.688Z,99001.94
2023-01-01T03:15:26.207Z,98995.66
2023-01-01T03:17:53.835Z,99003.16
2023-01-01T03:20:24.942Z,98998.56
2023-01-01T03:22:55.343Z,99009.41
2023-01-01T03:25:28.139Z,99016.19
2023-01-01T03:28:01.957Z,99014.09
2023-01-01T03:30:31.103Z,99012.28
2023-01-01T03:33:06.012Z,99015.56
2023-01-01T03:35:36.998Z,99017.06
2023-01-01T03:38:09.187Z,99017.88
2023-01-01T03:40:38.483Z,99018.84
2023-01-01T03:43:12.876Z,99017.19
2023-01-01T03:45:44.753Z,99022.28
2023-01-01T03:48:12.401Z,99012.47
2023-01-01T03:50:54.297Z,99015.94
2023-01-01T03:53:33.188Z,99007.06
2023-01-01T03:56:07.511Z,99013.59
2023-01-01T03:58:41.186Z,99012.47
2023-01-01T04:01:15.752Z,99011.56
2023-01-01T04:03:42.946Z,99012.75
2023-01-01T04:06:11.929Z,99015.88
2023-01-01T04:08:39.218Z,99010.44
2023-01-01T04:11:32.159Z,99024.38
2023-01-01T04:13:58.876Z,99018.44
2023-01-01T04:16:25.626Z,99020.25
2023-01-01T04:18:52.247Z,99018.78
2023-01-01T04:21:18.877Z,99019.59
2023-01-01T04:23:45.476Z,99023.38
2023-01-01T04:26:14.550Z,99012.59
2023-01-01T04:28:42.386Z,99018.16
2023-01-01T04:31:11.687Z,99024.63
2023-01-01T04:33:38.427Z,99026.97
2023-01-01T04:36:07.586Z,99018.34
2023-01-01T04:38:35.863Z,99018.44
2023-01-01T04:41:03.523Z,99048.81
2023-01-01T04:43:31.255Z,99052.88
2023-01-01T04:45:59.238Z,99045.25
2023-01-01T04:48:26.872Z,99048.25
2023-01-01T04:51:04.000Z,99044.16
2023-01-01T04:53:33.192Z,99047.75
2023-01-01T04:56:05.533Z,99045.81
2023-01-01T04:58:33.339Z,99047.75
2023-01-01T05:01:00.251Z,99051.03
2023-01-01T05:03:27.116Z,99050.66
2023-01-01T05:06:06.223Z,99052.91
2023-01-01T05:08:34.944Z,99053.50
2023-01-01T05:11:03.641Z,99044.16
2023-01-01T05:13:30.300Z,99054.94
2023-01-01T05:15:57.477Z,99065.97
2023-01-01T05:18:24.091Z,99064.84
2023-01-01T05:20:50.757Z,99063.72
2023-01-01T05:23:18.777Z,99062.41
2023-01-01T05:25:45.382Z,99070.75
2023-01-01T05:28:11.993Z,99083.13
2023-01-01T05:30:40.767Z,99091.50
2023-01-01T05:33:07.532Z,99100.00
2023-01-01T05:35:34.341Z,99103.22
2023-01-01T05:38:01.006Z,99096.88
2023-01-01T05:40:27.642Z,99097.16
2023-01-01T05:42:54.314Z,99096.31
2023-01-01T05:45:20.937Z,99096.00
2023-01-01T05:47:47.721Z,99093.00
2023-01-01T05:50:14.492Z,99088.84
2023-01-01T05:52:41.194Z,99096.66
2023-01-01T05:55:08.228Z,99109.72
2023-01-01T05:57:34.830Z,99112.16
2023-01-01T06:00:01.613Z,99103.59
2023-01-01T06:02:31.349Z,99097.03
2023-01-01T06:04:58.089Z,99105.53
2023-01-01T06:07:24.718Z,99098.69
2023-01-01T06:09:51.373Z,99107.03
2023-01-01T06:12:17.968Z,99112.19
2023-01-01T06:14:44.661Z,99129.22
2023-01-01T06:17:11.254Z,99119.94
2023-01-01T06:19:37.871Z,99121.88
2023-01-01T06:22:05.758Z,99123.59
2023-01-01T06:24:37.103Z,99119.38
2023-01-01T06:27:07.007Z,99114.25
2023-01-01T06:29:33.728Z,99135.09
2023-01-01T06:32:00.376Z,99137.69
2023-01-01T06:34:27.209Z,99136.97
2023-01-01T06:36:53.856Z,99135.16
2023-01-01T06:39:20.447Z,99123.91
2023-01-01T06:41:47.090Z,99139.56
2023-01-01T06:44:13.685Z,99134.13
2023-01-01T06:46:40.339Z,99133.00
2023-01-01T06:49:11.589Z,99143.44
2023-01-01T06:51:40.706Z,99142.63
2023-01-01T06:54:08.105Z,99151.47
2023-01-01T06:56:35.555Z,99146.41
2023-01-01T06:59:02.673Z,99152.41
2023-01-01T07:01:35.884Z,99153.50
2023-01-01T07:04:08.396Z,99162.69
2023-01-01T07:06:35.643Z,99168.72
2023-01-01T07:09:02.720Z,99179.78
2023-01-01T07:11:29.645Z,99176.44
2023-01-01T07:13:56.376Z,99172.19
2023-01-01T07:16:23.907Z,99177.59
2023-01-01T07:18:51.718Z,99174.25
2023-01-01T07:21:43.440Z,99181.22
2023-01-01T07:24:12.799Z,99178.84
2023-01-01T07:26:40.990Z,99182.66
2023-01-01T07:29:08.970Z,99187.41
2023-01-01T07:31:37.711Z,99186.03
2023-01-01T07:34:06.158Z,99190.88
2023-01-01T07:36:33.067Z,99198.97
2023-01-01T07:38:59.768Z,99199.97
2023-01-01T07:41:26.377Z,99193.09
2023-01-01T07:43:52.992Z,99195.53
2023-01-01T07:46:19.788Z,99196.97
2023-01-01T07:48:46.700Z,99196.50
2023-01-01T07:51:13.627Z,99197.47
2023-01-01T07:53:40.289Z,99203.81
2023-01-01T07:56:07.850Z,99204.09
2023-01-01T07:58:34.458Z,99201.38
2023-01-01T08:01:01.175Z,99210.88
2023-01-01T08:03:27.994Z,99212.38
2023-01-01T08:05:54.683Z,99215.06
2023-01-01T08:08:21.352Z,99207.16
2023-01-01T08:10:47.999Z,99218.41
2023-01-01T08:13:14.604Z,99212.22
2023-01-01T08:15:41.310Z,99218.78
2023-01-01T08:18:08.043Z,99215.06
2023-01-01T08:20:34.859Z,99215.31
2023-01-01T08:23:06.684Z,99221.09
2023-01-01T08:25:34.501Z,99222.47
2023-01-01T08:28:01.110Z,99216.75
2023-01-01T08:30:27.909Z,99224.09
2023-01-01T08:32:54.799Z,99214.44
2023-01-01T08:35:21.519Z,99208.94
2023-01-01T08:37:48.217Z,99203.94
2023-01-01T08:40:15.830Z,99214.34
2023-01-01T08:42:42.480Z,99216.00
2023-01-01T08:45:09.496Z,99220.91
2023-01-01T08:47:36.134Z,99223.91
2023-01-01T08:50:02.795Z,99227.19
2023-01-01T08:52:29.575Z,99226.75
2023-01-01T08:54:56.179Z,99227.94
2023-01-01T08:57:22.854Z,99216.06
2023-01-01T08:59:49.571Z,99221.25
2023-01-01T09:02:16.660Z,99222.22
2023-01-01T09:04:43.539Z,99219.09
2023-01-01T09:07:10.138Z,99231.78
2023-01-01T09:09:36.779Z,99225.81
2023-01-01T09:12:06.224Z,99231.31
2023-01-01T09:14:34.370Z,99239.69
2023-01-01T09:17:01.800Z,99237.44
2023-01-01T09:19:28.585Z,99245.13
2023-01-01T09:21:55.823Z,99237.97
2023-01-01T09:24:22.893Z,99237.66
2023-01-01T09:26:50.063Z,99250.44
2023-01-01T09:29:20.417Z,99248.56
2023-01-01T09:31:48.043Z,99245.19
2023-01-01T09:34:14.969Z,99247.44
2023-01-01T09:36:41.798Z,99250.84
2023-01-01T09:39:12.875Z,99255.34
2023-01-01T09:41:54.474Z,99250.41
2023-01-01T09:44:57.350Z,99256.31
2023-01-01T09:47:32.835Z,99260.47
2023-01-01T09:50:08.566Z,99245.22
2023-01-01T09:52:44.135Z,99233.53
2023-01-01T09:55:25.820Z,99234.75
2023-01-01T09:57:54.394Z,99231.50
2023-01-01T10:00:21.418Z,99228.09
2023-01-01T10:03:18.821Z,99222.50
2023-01-01T10:06:01.716Z,99215.81
2023-01-01T10:08:58.430Z,99211.53
2023-01-01T10:11:30.793Z,99214.81
2023-01-01T10:14:01.055Z,99212.53
2023-01-01T10:16:45.888Z,99214.47
2023-01-01T10:19:27.778Z,99219.06
2023-01-01T10:21:58.888Z,99220.19
2023-01-01T10:24:45.272Z,99226.25
2023-01-01T10:27:29.502Z,99225.53
2023-01-01T10:30:03.437Z,99222.78
2023-01-01T10:32:34.762Z,99218.84
2023-01-01T10:35:03.744Z,99216.06
2023-01-01T10:37:35.975Z,99218.69
2023-01-01T10:40:13.749Z,99223.06
2023-01-01T10:42:40.422Z,99214.34
2023-01-01T10:45:14.656Z,99209.09
2023-01-01T10:48:16.715Z,99214.63
2023-01-01T10:50:50.050Z,99208.16
2023-01-01T10:53:25.173Z,99202.41
2023-01-01T10:56:02.608Z,99205.81
2023-01-01T10:58:51.964Z,99205.94
2023-01-01T11:01:18.707Z,99200.50
2023-01-01T11:04:04.055Z,99202.28
2023-01-01T11:06:47.285Z,99207.72
2023-01-01T11:09:26.595Z,99212.38
2023-01-01T11:12:09.549Z,99195.09
2023-01-01T11:14:49.169Z,99206.53
2023-01-01T11:17:26.391Z,99204.53
2023-01-01T11:19:59.807Z,99195.59
2023-01-01T11:22:46.863Z,99198.88
2023-01-01T11:25:21.103Z,99191.97
2023-01-01T11:27:49.164Z,99184.44
2023-01-01T11:30:22.457Z,99180.81
2023-01-01T11:32:55.435Z,99188.69
2023-01-01T11:35:26.131Z,99181.38
2023-01-01T11:37:55.006Z,99174.91
2023-01-01T11:40:29.554Z,99170.56
2023-01-01T11:43:01.265Z,99165.53
2023-01-01T11:45:37.788Z,99158.13
2023-01-01T11:48:13.743Z,99155.97
2023-01-01T11:50:53.662Z,99160.34
2023-01-01T11:53:31.966Z,99150.28
2023-01-01T11:56:16.480Z,99153.63
2023-01-01T11:59:00.213Z,99150.84
2023-01-01T12:01:43.225Z,99143.66
2023-01-01T12:04:26.152Z,99133.41
2023-01-01T12:07:00.049Z,99144.09
2023-01-01T12:09:46.769Z,99135.34
2023-01-01T12:12:19.355Z,99132.28
2023-01-01T12:15:07.256Z,99133.88
2023-01-01T12:17:41.185Z,99135.91
2023-01-01T12:20:29.888Z,99139.78
2023-01-01T12:23:00.845Z,99129.25
2023-01-01T12:25:38.711Z,99126.59
2023-01-01T12:28:26.068Z,99127.06
2023-01-01T12:31:23.245Z,99125.28
2023-01-01T12:33:57.019Z,99121.66
2023-01-01T12:36:44.087Z,99128.25
2023-01-01T12:39:46.032Z,99120.38
2023-01-01T12:42:35.077Z,99118.16
2023-01-01T12:45:14.099Z,99122.25
2023-01-01T12:47:55.301Z,99119.41
2023-01-01T12:50:34.837Z,99127.13
2023-01-01T12:53:38.388Z,99122.69
2023-01-01T12:56:10.027Z,99124.69
2023-01-01T12:58:54.998Z,99123.69
2023-01-01T13:01:28.469Z,99121.47
2023-01-01T13:04:02.615Z,99119.03
2023-01-01T13:06:36.604Z,99122.06
2023-01-01T13:09:10.936Z,99121.03
2023-01-01T13:11:44.907Z,99121.03
2023-01-01T13:14:12.685Z,99121.25
2023-01-01T13:16:42.394Z,99115.53
2023-01-01T13:19:25.601Z,99117.38
2023-01-01T13:21:52.512Z,99122.69
2023-01-01T13:24:22.585Z,99129.59
2023-01-01T13:26:50.238Z,99129.38
2023-01-01T13:29:32.410Z,99127.16
2023-01-01T13:32:02.120Z,99127.31
2023-01-01T13:34:37.809Z,99135.66
2023-01-01T13:37:24.327Z,99139.34
2023-01-01T13:40:06.767Z,99135.78
2023-01-01T13:42:40.093Z,99141.66
2023-01-01T13:45:44.206Z,99134.97
2023-01-01T13:48:41.244Z,99135.13
2023-01-01T13:52:02.944Z,99133.59
2023-01-01T13:54:41.607Z,99135.19
2023-01-01T13:57:42.290Z,99137.91
2023-01-01T14:00:25.592Z,99130.94
2023-01-01T14:03:00.549Z,99136.06
2023-01-01T14:05:33.555Z,99126.19
2023-01-01T14:08:00.444Z,99132.78
2023-01-01T14:10:32.998Z,99136.59
2023-01-01T14:13:17.289Z,99134.56
2023-01-01T14:16:02.131Z,99137.41
2023-01-01T14:18:38.494Z,99142.72
2023-01-01T14:21:11.406Z,99140.59
2023-01-01T14:23:43.871Z,99132.38
2023-01-01T14:26:14.868Z,99132.66
2023-01-01T14:28:42.452Z,99128.72
2023-01-01T14:31:13.792Z,99129.66
2023-01-01T14:33:40.580Z,99131.94
2023-01-01T14:36:16.064Z,99123.56
2023-01-01T14:38:45.377Z,99131.16
2023-01-01T14:41:31.202Z,99128.50
2023-01-01T14:44:04.688Z,99140.97
2023-01-01T14:46:31.901Z,99132.31
2023-01-01T14:49:03.185Z,99128.28
2023-01-01T14:51:31.948Z,99131.81
2023-01-01T14:54:01.869Z,99123.50
2023-01-01T14:56:30.329Z,99121.78
2023-01-01T14:59:12.278Z,99123.25
2023-01-01T15:01:42.631Z,99122.53
2023-01-01T15:04:20.358Z,99126.06
2023-01-01T15:06:56.908Z,99126.09
2023-01-01T15:09:24.269Z,99129.19
2023-01-01T15:11:54.300Z,99130.56
2023-01-01T15:14:37.832Z,99116.84
2023-01-01T15:17:08.375Z,99123.44
2023-01-01T15:19:36.766Z,99118.63
2023-01-01T15:22:19.718Z,99123.06
2023-01-01T15:24:46.558Z,99124.09
2023-01-01T15:27:30.149Z,99126.31
2023-01-01T15:29:57.777Z,99133.28
2023-01-01T15:32:28.656Z,99130.13
2023-01-01T15:34:57.698Z,99134.06
2023-01-01T15:37:45.248Z,99131.66
2023-01-01T15:40:12.909Z,99131.00
2023-01-01T15:42:49.279Z,99140.59
2023-01-01T15:45:19.140Z,99131.63
2023-01-01T15:47:47.450Z,99140.06
2023-01-01T15:50:26.020Z,99141.91
2023-01-01T15:52:59.152Z,99143.22
2023-01-01T15:55:28.183Z,99155.31
2023-01-01T15:57:55.647Z,99150.16
2023-01-01T16:00:26.247Z,99153.88
2023-01-01T16:02:58.159Z,99145.03
2023-01-01T16:05:26.972Z,99148.75
2023-01-01T16:08:10.616Z,99152.91
2023-01-01T16:10:37.320Z,99148.66
2023-01-01T16:13:04.113Z,99154.78
2023-01-01T16:15:30.769Z,99155.88
2023-01-01T16:17:57.478Z,99157.44
2023-01-01T16:20:25.400Z,99161.78
2023-01-01T16:22:52.271Z,99168.22
2023-01-01T16:25:21.742Z,99174.06
2023-01-01T16:27:48.824Z,99179.66
2023-01-01T16:30:15.649Z,99173.53
2023-01-01T16:32:42.540Z,99168.91
2023-01-01T16:35:13.772Z,99166.94
2023-01-01T16:37:40.412Z,99162.84
2023-01-01T16:40:09.410Z,99164.53
2023-01-01T16:42:36.318Z,99165.25
2023-01-01T16:45:03.375Z,99156.13
2023-01-01T16:47:30.016Z,99155.34
2023-01-01T16:49:56.751Z,99150.97
2023-01-01T16:52:23.390Z,99153.53
2023-01-01T16:54:50.153Z,99155.03
2023-01-01T16:57:16.779Z,99147.63
2023-01-01T16:59:43.444Z,99153.72
2023-01-01T17:02:11.350Z,99148.00
2023-01-01T17:04:38.145Z,99151.91
2023-01-01T17:07:04.789Z,99150.94
2023-01-01T17:09:31.458Z,99152.09
2023-01-01T17:11:58.058Z,99149.16
2023-01-01T17:14:24.872Z,99151.59
2023-01-01T17:16:55.304Z,99153.28
2023-01-01T17:19:22.246Z,99152.16
2023-01-01T17:21:49.016Z,99153.50
2023-01-01T17:24:17.143Z,99149.53
2023-01-01T17:26:44.258Z,99145.75
2023-01-01T17:29:12.070Z,99151.81
2023-01-01T17:31:38.957Z,99151.53
2023-01-01T17:34:05.636Z,99156.44
2023-01-01T17:36:32.442Z,99156.44
2023-01-01T17:38:59.221Z,99158.09
2023-01-01T17:41:26.000Z,99153.03
2023-01-01T17:43:52.968Z,99153.84
2023-01-01T17:46:22.292Z,99148.94
2023-01-01T17:48:49.806Z,99149.75
2023-01-01T17:51:17.716Z,99149.28
2023-01-01T17:53:44.847Z,99140.72
2023-01-01T17:56:15.300Z,99143.03
2023-01-01T17:58:43.868Z,99144.03
2023-01-01T18:01:25.911Z,99145.63
2023-01-01T18:03:55.578Z,99138.09
2023-01-01T18:06:22.398Z,99150.88
2023-01-01T18:08:53.861Z,99153.84
2023-01-01T18:11:20.533Z,99157.28
2023-01-01T18:13:47.304Z,99152.19
2023-01-01T18:16:13.989Z,99156.13
2023-01-01T18:18:40.970Z,99156.91
2023-01-01T18:21:12.337Z,99165.38
2023-01-01T18:23:39.997Z,99159.00
2023-01-01T18:26:09.897Z,99157.03
2023-01-01T18:28:37.570Z,99157.53
2023-01-01T18:31:14.681Z,99153.63
2023-01-01T18:33:41.917Z,99141.66
2023-01-01T18:36:12.410Z,99153.09
2023-01-01T18:38:40.386Z,99141.31
2023-01-01T18:41:26.979Z,99152.47
2023-01-01T18:43:54.240Z,99152.13
2023-01-01T18:46:23.427Z,99145.38
2023-01-01T18:48:55.392Z,99146.53
2023-01-01T18:51:25.948Z,99146.84
2023-01-01T18:53:58.391Z,99140.59
2023-01-01T18:56:25.627Z,99139.81
2023-01-01T18:58:56.294Z,99125.84
2023-01-01T19:01:24.239Z,99137.97
2023-01-01T19:03:54.812Z,99129.59
2023-01-01T19:06:27.319Z,99126.84
2023-01-01T19:09:25.322Z,99129.94
2023-01-01T19:11:54.584Z,99126.00
2023-01-01T19:14:23.520Z,99123.66
2023-01-01T19:16:55.140Z,99120.38
2023-01-01T19:19:24.531Z,99127.75
2023-01-01T19:21:54.726Z,99125.97
2023-01-01T19:24:24.627Z,99127.75
2023-01-01T19:27:16.050Z,99122.69
2023-01-01T19:29:44.959Z,99127.34
2023-01-01T19:32:11.984Z,99126.13
2023-01-01T19:34:39.833Z,99120.53
2023-01-01T19:37:07.657Z,99118.47
2023-01-01T19:39:35.234Z,99115.38
2023-01-01T19:42:05.148Z,99108.50
2023-01-01T19:44:32.097Z,99106.00
2023-01-01T19:47:00.596Z,99106.38
2023-01-01T19:49:28.238Z,99105.63
2023-01-01T19:51:54.922Z,99095.13
2023-01-01T19:54:21.649Z,99096.38
2023-01-01T19:56:49.994Z,99090.66
2023-01-01T19:59:16.879Z,99087.16
2023-01-01T20:01:43.708Z,99090.81
2023-01-01T20:04:10.584Z,99088.44
2023-01-01T20:06:37.887Z,99084.53
2023-01-01T20:09:04.656Z,99088.75
2023-01-01T20:11:32.202Z,99090.81
2023-01-01T20:13:59.205Z,99088.47
2023-01-01T20:16:25.984Z,99094.16
2023-01-01T20:18:52.867Z,99087.63
2023-01-01T20:21:34.761Z,99088.13
2023-01-01T20:24:01.615Z,99081.94
2023-01-01T20:26:28.292Z,99088.13
2023-01-01T20:29:10.235Z,99086.50
2023-01-01T20:31:37.367Z,99089.41
2023-01-01T20:34:04.288Z,99092.34
2023-01-01T20:36:46.402Z,99084.19
2023-01-01T20:39:14.147Z,99084.13
2023-01-01T20:41:40.892Z,99083.34
2023-01-01T20:44:07.575Z,99085.38
2023-01-01T20:46:35.230Z,99085.78
2023-01-01T20:49:01.965Z,99083.53
2023-01-01T20:51:28.674Z,99081.88
2023-01-01T20:53:55.988Z,99078.16
2023-01-01T20:56:22.754Z,99079.13
2023-01-01T20:58:54.525Z,99076.81
2023-01-01T21:01:24.414Z,99083.13
2023-01-01T21:03:51.097Z,99073.69
2023-01-01T21:06:23.741Z,99071.88
2023-01-01T21:08:51.371Z,99071.47
2023-01-01T21:11:18.173Z,99073.59
2023-01-01T21:13:45.542Z,99067.56
2023-01-01T21:16:16.698Z,99066.75
2023-01-01T21:18:43.927Z,99066.59
2023-01-01T21:21:19.224Z,99067.56
2023-01-01T21:23:46.144Z,99060.41
2023-01-01T21:26:19.277Z,99063.34
2023-01-01T21:28:47.326Z,99060.19
2023-01-01T21:31:15.495Z,99057.28
2023-01-01T21:33:44.615Z,99050.72
2023-01-01T21:36:15.804Z,99045.44
2023-01-01T21:38:42.624Z,99039.59
2023-01-01T21:41:28.799Z,99036.88
2023-01-01T21:43:57.958Z,99033.72
2023-01-01T21:46:24.742Z,99036.13
2023-01-01T21:48:58.119Z,99035.00
2023-01-01T21:51:28.628Z,99038.75
2023-01-01T21:54:17.417Z,99041.13
2023-01-01T21:56:52.899Z,99047.94
2023-01-01T21:59:32.169Z,99042.66
2023-01-01T22:02:31.199Z,99037.66
2023-01-01T22:05:00.258Z,99035.41
2023-01-01T22:10:22.616Z,99030.50
2023-01-01T22:12:57.864Z,99021.31
2023-01-01T22:15:25.735Z,99013.09
2023-01-01T22:18:12.324Z,99005.00
2023-01-01T22:20:40.569Z,99009.78
2023-01-01T22:23:24.389Z,99017.00
2023-01-01T22:25:52.594Z,99023.41
2023-01-01T22:28:23.533Z,99030.94
2023-01-01T22:30:55.306Z,99033.78
2023-01-01T22:33:27.963Z,99024.16
2023-01-01T22:35:57.309Z,99026.84
2023-01-01T22:38:32.447Z,99027.56
2023-01-01T22:40:59.834Z,99024.84
2023-01-01T22:43:33.491Z,99031.06
2023-01-01T22:46:10.671Z,99032.72
2023-01-01T22:48:38.806Z,99030.47
2023-01-01T22:51:11.940Z,99027.50
2023-01-01T22:53:38.642Z,99018.72
2023-01-01T22:56:05.597Z,99015.94
2023-01-01T22:58:32.295Z,99026.09
2023-01-01T23:00:59.096Z,99016.78
2023-01-01T23:03:25.891Z,99024.50
2023-01-01T23:05:54.278Z,99015.50
2023-01-01T23:08:25.371Z,99011.84
2023-01-01T23:10:56.611Z,99008.94
2023-01-01T23:13:39.033Z,99009.97
2023-01-01T23:16:05.782Z,99002.38
2023-01-01T23:18:34.958Z,98994.03
2023-01-01T23:21:05.328Z,98987.84
2023-01-01T23:23:32.623Z,98994.59
2023-01-01T23:26:00.782Z,98995.63
2023-01-01T23:28:30.215Z,98997.34
2023-01-01T23:30:58.674Z,98994.00
2023-01-01T23:33:25.580Z,98991.03
2023-01-01T23:35:52.987Z,98996.72
2023-01-01T23:38:20.900Z,98997.34
2023-01-01T23:40:47.576Z,98994.81
2023-01-01T23:43:14.286Z,98991.63
2023-01-01T23:45:41.372Z,98989.69
2023-01-01T23:48:08.324Z,98995.41
2023-01-01T23:50:35.159Z,98984.06
2023-01-01T23:53:02.006Z,98982.34
2023-01-01T23:55:28.695Z,98973.69
2023-01-01T23:57:55.379Z,98976.03
